createdAt,value
2023-05-08T00:01:47.288Z,101786.00
2023-05-08T00:04:15.016Z,101793.53
2023-05-08T00:06:42.569Z,101791.25
2023-05-08T00:09:11.188Z,101795.13
2023-05-08T00:11:39.524Z,101789.03
2023-05-08T00:14:07.013Z,101792.19
2023-05-08T00:16:34.802Z,101792.44
2023-05-08T00:19:02.241Z,101790.00
2023-05-08T00:21:30.162Z,101792.84
2023-05-08T00:23:57.468Z,101792.00
2023-05-08T00:26:24.986Z,101785.88
2023-05-08T00:28:52.330Z,101787.31
2023-05-08T00:31:19.854Z,101792.94
2023-05-08T00:33:47.266Z,101799.47
2023-05-08T00:36:15.908Z,101794.38
2023-05-08T00:38:43.289Z,101797.06
2023-05-08T00:41:10.613Z,101796.38
2023-05-08T00:43:40.101Z,101796.63
2023-05-08T00:46:09.850Z,101784.22
2023-05-08T00:48:40.649Z,101786.41
2023-05-08T00:51:09.582Z,101791.41
2023-05-08T00:53:39.821Z,101798.47
2023-05-08T00:56:11.311Z,101792.16
2023-05-08T00:58:41.218Z,101792.84
2023-05-08T01:01:08.811Z,101788.91
2023-05-08T01:03:37.805Z,101787.56
2023-05-08T01:06:06.921Z,101793.03
2023-05-08T01:08:34.985Z,101785.75
2023-05-08T01:11:23.627Z,101786.78
2023-05-08T01:13:52.493Z,101801.59
2023-05-08T01:16:33.449Z,101787.59
2023-05-08T01:19:22.684Z,101796.22
2023-05-08T01:21:55.555Z,101791.41
2023-05-08T01:24:41.449Z,101790.69
2023-05-08T01:27:35.992Z,101781.53
2023-05-08T01:30:15.132Z,101789.41
2023-05-08T01:32:47.033Z,101787.31
2023-05-08T01:35:45.431Z,101787.16
2023-05-08T01:38:33.583Z,101783.78
2023-05-08T01:41:10.803Z,101779.16
2023-05-08T01:43:53.552Z,101785.25
2023-05-08T01:46:26.112Z,101789.16
2023-05-08T01:49:04.051Z,101780.03
2023-05-08T01:51:39.349Z,101776.94
2023-05-08T01:54:10.341Z,101784.94
2023-05-08T01:56:42.725Z,101783.94
2023-05-08T01:59:14.079Z,101790.63
2023-05-08T02:01:43.769Z,101783.41
2023-05-08T02:04:13.238Z,101789.31
2023-05-08T02:06:41.676Z,101786.00
2023-05-08T02:09:10.970Z,101791.91
2023-05-08T02:11:41.500Z,101793.91
2023-05-08T02:14:09.651Z,101798.69
2023-05-08T02:16:40.209Z,101806.28
2023-05-08T02:19:10.741Z,101804.19
2023-05-08T02:21:40.453Z,101809.84
2023-05-08T02:24:09.343Z,101804.78
2023-05-08T02:26:40.161Z,101809.84
2023-05-08T02:29:09.130Z,101806.72
2023-05-08T02:31:38.892Z,101808.63
2023-05-08T02:34:09.519Z,101811.44
2023-05-08T02:36:39.291Z,101823.88
2023-05-08T02:39:11.361Z,101809.44
2023-05-08T02:41:41.994Z,101807.56
2023-05-08T02:44:09.790Z,101816.41
2023-05-08T02:46:52.621Z,101809.19
2023-05-08T02:49:45.962Z,101820.50
2023-05-08T02:52:17.341Z,101814.28
2023-05-08T02:55:07.889Z,101824.88
2023-05-08T02:57:57.431Z,101820.91
2023-05-08T03:00:32.737Z,101830.69
2023-05-08T03:03:19.925Z,101828.88
2023-05-08T03:05:53.931Z,101832.66
2023-05-08T03:08:28.543Z,101828.84
2023-05-08T03:10:59.644Z,101824.75
2023-05-08T03:13:30.253Z,101829.31
2023-05-08T03:16:01.580Z,101831.19
2023-05-08T03:18:35.368Z,101822.22
2023-05-08T03:21:05.705Z,101830.13
2023-05-08T03:23:36.163Z,101835.31
2023-05-08T03:26:06.012Z,101839.41
2023-05-08T03:28:36.832Z,101835.56
2023-05-08T03:31:06.304Z,101836.97
2023-05-08T03:33:37.272Z,101839.41
2023-05-08T03:36:06.185Z,101835.56
2023-05-08T03:38:35.143Z,101831.88
2023-05-08T03:41:02.976Z,101840.09
2023-05-08T03:43:32.474Z,101830.19
2023-05-08T03:46:00.687Z,101836.34
2023-05-08T03:48:30.604Z,101826.56
2023-05-08T03:51:01.219Z,101837.72
2023-05-08T03:53:30.741Z,101833.09
2023-05-08T03:55:59.318Z,101833.34
2023-05-08T03:58:44.570Z,101835.72
2023-05-08T04:01:28.893Z,101833.75
2023-05-08T04:04:12.403Z,101832.59
2023-05-08T04:07:12.753Z,101837.13
2023-05-08T04:09:58.249Z,101832.66
2023-05-08T04:12:27.797Z,101837.28
2023-05-08T04:15:05.135Z,101839.88
2023-05-08T04:17:59.129Z,101828.66
2023-05-08T04:20:29.446Z,101838.00
2023-05-08T04:22:58.675Z,101831.09
2023-05-08T04:25:27.007Z,101834.22
2023-05-08T04:27:56.223Z,101844.84
2023-05-08T04:30:24.179Z,101843.84
2023-05-08T04:32:52.681Z,101842.78
2023-05-08T04:35:20.176Z,101836.91
2023-05-08T04:37:47.811Z,101841.53
2023-05-08T04:40:15.243Z,101830.84
2023-05-08T04:42:47.624Z,101831.91
2023-05-08T04:45:15.917Z,101839.13
2023-05-08T04:47:44.717Z,101836.59
2023-05-08T04:50:12.119Z,101826.13
2023-05-08T04:52:39.481Z,101835.31
2023-05-08T04:55:07.489Z,101830.66
2023-05-08T04:57:34.980Z,101832.34
2023-05-08T05:00:02.427Z,101830.03
2023-05-08T05:02:30.283Z,101823.63
2023-05-08T05:05:01.522Z,101831.72
2023-05-08T05:07:28.901Z,101839.66
2023-05-08T05:09:56.304Z,101835.81
2023-05-08T05:12:24.072Z,101833.03
2023-05-08T05:14:51.626Z,101835.28
2023-05-08T05:17:18.991Z,101829.22
2023-05-08T05:19:46.320Z,101841.88
2023-05-08T05:22:13.821Z,101840.72
2023-05-08T05:24:41.857Z,101843.75
2023-05-08T05:27:09.467Z,101835.38
2023-05-08T05:29:37.102Z,101832.66
2023-05-08T05:32:04.661Z,101833.31
2023-05-08T05:34:32.313Z,101836.34
2023-05-08T05:36:59.638Z,101827.41
2023-05-08T05:39:27.093Z,101832.47
2023-05-08T05:41:54.400Z,101822.06
2023-05-08T05:44:22.181Z,101823.03
2023-05-08T05:46:49.695Z,101821.91
2023-05-08T05:49:17.541Z,101817.53
2023-05-08T05:51:44.965Z,101809.09
2023-05-08T05:54:12.341Z,101807.97
2023-05-08T05:56:39.901Z,101821.94
2023-05-08T05:59:07.218Z,101818.13
2023-05-08T06:01:34.829Z,101822.50
2023-05-08T06:04:02.429Z,101823.00
2023-05-08T06:06:30.167Z,101822.19
2023-05-08T06:08:58.017Z,101822.00
2023-05-08T06:11:25.741Z,101826.22
2023-05-08T06:13:53.210Z,101826.88
2023-05-08T06:16:23.283Z,101825.34
2023-05-08T06:18:51.296Z,101835.09
2023-05-08T06:21:18.675Z,101838.13
2023-05-08T06:23:46.208Z,101832.38
2023-05-08T06:26:13.521Z,101843.16
2023-05-08T06:28:40.900Z,101840.47
2023-05-08T06:31:08.351Z,101843.31
2023-05-08T06:33:36.305Z,101837.38
2023-05-08T06:36:06.293Z,101832.69
2023-05-08T06:38:33.690Z,101834.28
2023-05-08T06:41:01.190Z,101844.81
2023-05-08T06:43:28.612Z,101843.69
2023-05-08T06:45:56.028Z,101851.38
2023-05-08T06:48:23.772Z,101838.97
2023-05-08T06:50:51.837Z,101852.75
2023-05-08T06:53:19.521Z,101870.38
2023-05-08T06:55:46.893Z,101870.38
2023-05-08T06:58:14.326Z,101861.59
2023-05-08T07:00:42.886Z,101867.75
2023-05-08T07:03:10.261Z,101873.41
2023-05-08T07:05:37.723Z,101878.28
2023-05-08T07:08:05.242Z,101884.63
2023-05-08T07:10:32.706Z,101877.25
2023-05-08T07:13:00.205Z,101885.97
2023-05-08T07:15:27.792Z,101889.44
2023-05-08T07:17:55.303Z,101889.66
2023-05-08T07:20:24.522Z,101888.16
2023-05-08T07:22:52.208Z,101887.31
2023-05-08T07:25:19.605Z,101895.34
2023-05-08T07:27:47.533Z,101888.81
2023-05-08T07:30:15.380Z,101879.91
2023-05-08T07:32:42.836Z,101877.22
2023-05-08T07:35:12.334Z,101873.22
2023-05-08T07:37:40.331Z,101872.56
2023-05-08T07:40:08.900Z,101871.38
2023-05-08T07:42:43.947Z,101875.34
2023-05-08T07:45:13.994Z,101879.84
2023-05-08T07:48:08.560Z,101868.00
2023-05-08T07:50:37.228Z,101871.38
2023-05-08T07:53:04.655Z,101864.16
2023-05-08T07:55:32.778Z,101873.16
2023-05-08T07:58:00.227Z,101875.94
2023-05-08T08:00:27.881Z,101879.97
2023-05-08T08:02:55.627Z,101874.06
2023-05-08T08:05:23.225Z,101877.06
2023-05-08T08:07:50.923Z,101886.06
2023-05-08T08:10:18.444Z,101891.06
2023-05-08T08:12:45.933Z,101888.91
2023-05-08T08:15:13.567Z,101882.59
2023-05-08T08:17:41.426Z,101872.16
2023-05-08T08:20:09.335Z,101880.25
2023-05-08T08:22:37.939Z,101886.28
2023-05-08T08:25:06.075Z,101874.81
2023-05-08T08:27:33.755Z,101867.03
2023-05-08T08:30:16.221Z,101873.22
2023-05-08T08:32:46.288Z,101874.75
2023-05-08T08:35:14.284Z,101874.75
2023-05-08T08:37:42.376Z,101877.16
2023-05-08T08:40:10.220Z,101877.34
2023-05-08T08:42:38.021Z,101877.72
2023-05-08T08:45:06.971Z,101872.13
2023-05-08T08:47:41.787Z,101875.94
2023-05-08T08:50:12.841Z,101878.56
2023-05-08T08:52:49.274Z,101870.94
2023-05-08T08:55:18.828Z,101872.88
2023-05-08T08:58:00.079Z,101875.19
2023-05-08T09:00:32.320Z,101863.06
2023-05-08T09:03:00.365Z,101873.53
2023-05-08T09:05:28.021Z,101860.53
2023-05-08T09:07:56.211Z,101861.38
2023-05-08T09:10:25.250Z,101858.84
2023-05-08T09:12:53.332Z,101860.75
2023-05-08T09:15:20.938Z,101856.13
2023-05-08T09:17:48.549Z,101843.25
2023-05-08T09:20:18.907Z,101860.06
2023-05-08T09:22:46.827Z,101847.88
2023-05-08T09:25:14.565Z,101850.41
2023-05-08T09:27:42.162Z,101846.63
2023-05-08T09:30:12.494Z,101858.81
2023-05-08T09:32:45.748Z,101852.50
2023-05-08T09:35:13.954Z,101844.72
2023-05-08T09:37:43.429Z,101858.47
2023-05-08T09:40:22.338Z,101849.31
2023-05-08T09:42:50.915Z,101862.53
2023-05-08T09:45:35.462Z,101859.53
2023-05-08T09:48:03.176Z,101859.06
2023-05-08T09:50:31.862Z,101855.75
2023-05-08T09:52:59.453Z,101860.19
2023-05-08T09:55:26.905Z,101855.81
2023-05-08T09:57:58.103Z,101845.69
2023-05-08T10:00:29.519Z,101849.13
2023-05-08T10:03:04.428Z,101857.84
2023-05-08T10:05:34.636Z,101862.47
2023-05-08T10:08:21.692Z,101851.97
2023-05-08T10:10:49.806Z,101866.78
2023-05-08T10:13:17.873Z,101862.16
2023-05-08T10:15:45.898Z,101863.38
2023-05-08T10:18:16.632Z,101856.47
2023-05-08T10:20:48.101Z,101852.41
2023-05-08T10:23:17.656Z,101863.25
2023-05-08T10:25:47.421Z,101851.69
2023-05-08T10:28:40.680Z,101851.25
2023-05-08T10:31:11.764Z,101855.19
2023-05-08T10:33:40.932Z,101855.06
2023-05-08T10:36:10.222Z,101861.34
2023-05-08T10:38:38.014Z,101846.69
2023-05-08T10:41:05.957Z,101850.63
2023-05-08T10:43:34.295Z,101849.88
2023-05-08T10:46:09.881Z,101846.78
2023-05-08T10:48:54.165Z,101862.91
2023-05-08T10:51:27.314Z,101859.06
2023-05-08T10:54:02.286Z,101859.19
2023-05-08T10:56:29.745Z,101862.69
2023-05-08T10:58:58.899Z,101847.88
2023-05-08T11:01:27.115Z,101861.72
2023-05-08T11:03:57.708Z,101858.16
2023-05-08T11:06:53.318Z,101865.34
2023-05-08T11:09:31.399Z,101860.09
2023-05-08T11:12:08.544Z,101871.78
2023-05-08T11:14:41.888Z,101874.06
2023-05-08T11:17:10.692Z,101865.50
2023-05-08T11:19:38.817Z,101870.44
2023-05-08T11:22:17.193Z,101866.78
2023-05-08T11:24:59.356Z,101876.63
2023-05-08T11:27:37.432Z,101881.47
2023-05-08T11:30:43.597Z,101871.41
2023-05-08T11:33:11.137Z,101863.13
2023-05-08T11:36:25.486Z,101872.59
2023-05-08T11:39:06.305Z,101879.38
2023-05-08T11:41:34.073Z,101879.34
2023-05-08T11:44:14.966Z,101860.31
2023-05-08T11:46:53.965Z,101864.97
2023-05-08T11:49:29.109Z,101858.69
2023-05-08T11:51:59.392Z,101860.38
2023-05-08T11:54:30.522Z,101863.25
2023-05-08T11:56:59.819Z,101851.41
2023-05-08T11:59:27.415Z,101865.50
2023-05-08T12:04:25.434Z,101867.97
2023-05-08T12:06:57.773Z,101849.59
2023-05-08T12:09:25.377Z,101852.56
2023-05-08T12:11:58.191Z,101848.03
2023-05-08T12:14:25.968Z,101851.06
2023-05-08T12:16:53.352Z,101867.22
2023-05-08T12:19:20.830Z,101867.88
2023-05-08T12:21:49.254Z,101858.16
2023-05-08T12:24:23.685Z,101859.19
2023-05-08T12:26:56.320Z,101855.28
2023-05-08T12:29:24.311Z,101852.53
2023-05-08T12:31:54.138Z,101860.66
2023-05-08T12:34:22.014Z,101856.16
2023-05-08T12:36:51.394Z,101851.16
2023-05-08T12:39:19.135Z,101861.06
2023-05-08T12:41:51.837Z,101855.78
2023-05-08T12:44:26.169Z,101860.06
2023-05-08T12:46:56.419Z,101868.94
2023-05-08T12:49:31.580Z,101867.59
2023-05-08T12:52:07.005Z,101876.03
2023-05-08T12:54:36.276Z,101865.25
2023-05-08T12:57:29.725Z,101879.75
2023-05-08T13:00:05.156Z,101884.41
2023-05-08T13:02:35.636Z,101882.97
2023-05-08T13:05:06.854Z,101882.53
2023-05-08T13:07:35.893Z,101885.28
2023-05-08T13:10:04.984Z,101891.78
2023-05-08T13:12:32.743Z,101891.47
2023-05-08T13:15:01.049Z,101886.50
2023-05-08T13:17:28.602Z,101896.81
2023-05-08T13:19:56.019Z,101902.66
2023-05-08T13:22:26.731Z,101904.56
2023-05-08T13:24:54.312Z,101897.41
2023-05-08T13:27:21.838Z,101904.78
2023-05-08T13:29:49.195Z,101909.16
2023-05-08T13:32:16.847Z,101901.22
2023-05-08T13:34:50.161Z,101913.34
2023-05-08T13:37:19.075Z,101897.41
2023-05-08T13:39:46.737Z,101905.41
2023-05-08T13:42:14.218Z,101905.41
2023-05-08T13:44:41.724Z,101905.84
2023-05-08T13:47:10.063Z,101903.31
2023-05-08T13:49:37.561Z,101908.25
2023-05-08T13:52:05.321Z,101902.88
2023-05-08T13:54:32.893Z,101902.47
2023-05-08T13:57:01.279Z,101903.22
2023-05-08T13:59:29.150Z,101894.34
2023-05-08T14:01:56.568Z,101900.72
2023-05-08T14:04:24.183Z,101910.50
2023-05-08T14:06:51.565Z,101906.75
2023-05-08T14:09:19.022Z,101900.19
2023-05-08T14:11:46.476Z,101904.16
2023-05-08T14:14:13.979Z,101910.91
2023-05-08T14:16:41.636Z,101896.50
2023-05-08T14:19:09.186Z,101902.47
2023-05-08T14:21:37.957Z,101904.97
2023-05-08T14:24:05.789Z,101913.34
2023-05-08T14:26:33.465Z,101913.19
2023-05-08T14:29:01.014Z,101908.44
2023-05-08T14:31:28.687Z,101915.50
2023-05-08T14:33:56.471Z,101912.59
2023-05-08T14:36:23.863Z,101921.66
2023-05-08T14:38:51.425Z,101918.63
2023-05-08T14:41:18.878Z,101919.06
2023-05-08T14:43:47.158Z,101923.53
2023-05-08T14:46:14.977Z,101918.91
2023-05-08T14:48:42.801Z,101923.22
2023-05-08T14:51:12.192Z,101914.28
2023-05-08T14:53:39.961Z,101912.41
2023-05-08T14:56:08.001Z,101922.41
2023-05-08T14:58:35.667Z,101916.22
2023-05-08T15:01:03.071Z,101924.69
2023-05-08T15:03:30.806Z,101917.19
2023-05-08T15:05:58.288Z,101914.66
2023-05-08T15:08:25.643Z,101915.63
2023-05-08T15:10:53.030Z,101912.88
2023-05-08T15:13:20.502Z,101909.03
2023-05-08T15:15:48.029Z,101919.59
2023-05-08T15:18:15.460Z,101923.00
2023-05-08T15:20:43.374Z,101925.59
2023-05-08T15:23:10.722Z,101928.16
2023-05-08T15:25:38.380Z,101928.06
2023-05-08T15:28:05.807Z,101936.75
2023-05-08T15:30:33.506Z,101935.00
2023-05-08T15:33:01.022Z,101935.19
2023-05-08T15:35:28.400Z,101944.41
2023-05-08T15:37:55.845Z,101943.88
2023-05-08T15:40:23.336Z,101946.50
2023-05-08T15:42:50.729Z,101939.75
2023-05-08T15:45:18.369Z,101944.19
2023-05-08T15:47:45.867Z,101947.84
2023-05-08T15:50:14.577Z,101940.84
2023-05-08T15:52:42.106Z,101937.44
2023-05-08T15:55:09.533Z,101932.97
2023-05-08T15:57:37.258Z,101931.63
2023-05-08T16:00:05.184Z,101941.31
2023-05-08T16:02:34.037Z,101939.28
2023-05-08T16:05:01.484Z,101936.97
2023-05-08T16:07:28.842Z,101938.63
2023-05-08T16:09:56.229Z,101942.28
2023-05-08T16:12:23.636Z,101941.31
2023-05-08T16:14:50.960Z,101944.69
2023-05-08T16:17:18.596Z,101951.13
2023-05-08T16:19:46.186Z,101939.69
2023-05-08T16:22:13.645Z,101948.09
2023-05-08T16:24:41.061Z,101955.91
2023-05-08T16:27:08.445Z,101957.94
2023-05-08T16:29:35.785Z,101962.03
2023-05-08T16:32:03.394Z,101959.69
2023-05-08T16:34:31.315Z,101969.66
2023-05-08T16:36:58.819Z,101971.53
2023-05-08T16:39:26.218Z,101972.22
2023-05-08T16:41:53.686Z,101980.81
2023-05-08T16:44:21.246Z,101974.56
2023-05-08T16:46:48.599Z,101971.19
2023-05-08T16:49:16.089Z,101974.41
2023-05-08T16:51:43.710Z,101981.00
2023-05-08T16:54:11.073Z,101975.94
2023-05-08T16:56:38.417Z,101976.25
2023-05-08T16:59:08.908Z,101982.19
2023-05-08T17:01:36.469Z,101981.19
2023-05-08T17:04:03.962Z,101980.66
2023-05-08T17:06:32.971Z,101984.53
2023-05-08T17:09:00.488Z,101985.38
2023-05-08T17:11:27.961Z,101989.78
2023-05-08T17:13:55.429Z,102001.78
2023-05-08T17:16:23.234Z,101995.72
2023-05-08T17:18:50.802Z,102011.22
2023-05-08T17:21:18.197Z,102011.72
2023-05-08T17:23:45.864Z,102017.34
2023-05-08T17:26:13.270Z,102026.94
2023-05-08T17:28:40.894Z,102022.56
2023-05-08T17:31:09.605Z,102025.25
2023-05-08T17:33:37.956Z,102028.94
2023-05-08T17:36:05.590Z,102028.63
2023-05-08T17:38:35.440Z,102026.44
2023-05-08T17:41:02.746Z,102030.66
2023-05-08T17:43:31.066Z,102027.63
2023-05-08T17:45:58.612Z,102026.94
2023-05-08T17:48:26.673Z,102020.19
2023-05-08T17:50:54.056Z,102021.69
2023-05-08T17:53:21.489Z,102029.97
2023-05-08T17:55:48.861Z,102026.44
2023-05-08T17:58:16.253Z,102024.75
2023-05-08T18:00:43.865Z,102031.66
2023-05-08T18:03:12.368Z,102040.44
2023-05-08T18:05:40.311Z,102045.50
2023-05-08T18:08:07.861Z,102038.41
2023-05-08T18:10:36.611Z,102047.53
2023-05-08T18:13:04.108Z,102042.81
2023-05-08T18:15:31.660Z,102042.97
2023-05-08T18:17:59.171Z,102048.53
2023-05-08T18:20:26.707Z,102051.75
2023-05-08T18:22:54.217Z,102051.91
2023-05-08T18:25:21.852Z,102042.47
2023-05-08T18:27:50.683Z,102041.97
2023-05-08T18:30:18.285Z,102037.56
2023-05-08T18:32:45.953Z,102037.72
2023-05-08T18:35:13.551Z,102035.88
2023-05-08T18:37:41.222Z,102041.13
2023-05-08T18:40:09.258Z,102035.88
2023-05-08T18:42:36.976Z,102035.69
2023-05-08T18:45:07.951Z,102038.56
2023-05-08T18:47:35.594Z,102032.31
2023-05-08T18:50:03.256Z,102034.03
2023-05-08T18:52:30.950Z,102031.50
2023-05-08T18:54:58.386Z,102036.22
2023-05-08T18:57:25.965Z,102036.41
2023-05-08T18:59:53.724Z,102045.66
2023-05-08T19:02:21.393Z,102037.38
2023-05-08T19:04:48.821Z,102040.78
2023-05-08T19:07:16.318Z,102041.63
2023-05-08T19:09:43.724Z,102045.16
2023-05-08T19:12:11.328Z,102046.50
2023-05-08T19:14:39.017Z,102046.84
2023-05-08T19:17:06.607Z,102044.81
2023-05-08T19:19:35.000Z,102041.78
2023-05-08T19:22:02.700Z,102042.09
2023-05-08T19:24:31.983Z,102038.06
2023-05-08T19:26:59.560Z,102041.63
2023-05-08T19:29:27.176Z,102040.78
2023-05-08T19:31:56.612Z,102043.47
2023-05-08T19:34:24.258Z,102039.03
2023-05-08T19:36:51.830Z,102039.56
2023-05-08T19:39:19.412Z,102040.41
2023-05-08T19:41:47.128Z,102039.06
2023-05-08T19:44:14.635Z,102041.94
2023-05-08T19:46:42.707Z,102038.53
2023-05-08T19:49:10.248Z,102036.69
2023-05-08T19:51:37.826Z,102039.41
2023-05-08T19:54:05.379Z,102038.06
2023-05-08T19:56:32.922Z,102033.28
2023-05-08T19:59:00.331Z,102027.22
2023-05-08T20:01:27.859Z,102019.78
2023-05-08T20:03:57.510Z,102021.31
2023-05-08T20:06:26.446Z,102009.63
2023-05-08T20:08:54.216Z,102009.31
2023-05-08T20:11:22.808Z,102023.09
2023-05-08T20:13:50.423Z,102018.72
2023-05-08T20:16:18.161Z,102019.63
2023-05-08T20:18:46.350Z,102017.75
2023-05-08T20:21:13.844Z,102012.72
2023-05-08T20:23:41.397Z,102011.38
2023-05-08T20:26:08.823Z,102015.41
2023-05-08T20:28:36.825Z,102009.69
2023-05-08T20:31:04.398Z,102013.75
2023-05-08T20:33:31.914Z,102007.69
2023-05-08T20:35:59.258Z,102010.38
2023-05-08T20:38:26.918Z,102010.06
2023-05-08T20:40:56.966Z,102005.50
2023-05-08T20:43:26.803Z,102002.94
2023-05-08T20:45:54.313Z,101999.88
2023-05-08T20:48:21.992Z,102004.94
2023-05-08T20:50:49.379Z,101997.53
2023-05-08T20:53:19.422Z,101998.53
2023-05-08T20:55:46.773Z,102001.59
2023-05-08T20:58:14.520Z,102001.94
2023-05-08T21:00:41.862Z,102006.34
2023-05-08T21:03:09.447Z,102003.44
2023-05-08T21:05:36.878Z,101997.53
2023-05-08T21:08:06.325Z,102000.91
2023-05-08T21:10:34.185Z,102007.16
2023-05-08T21:13:02.364Z,102001.56
2023-05-08T21:15:29.875Z,102004.63
2023-05-08T21:17:57.475Z,102002.94
2023-05-08T21:20:24.970Z,102002.28
2023-05-08T21:22:52.668Z,102005.66
2023-05-08T21:25:21.339Z,101997.81
2023-05-08T21:27:48.863Z,101997.19
2023-05-08T21:30:16.601Z,101998.53
2023-05-08T21:32:45.290Z,102000.88
2023-05-08T21:35:13.382Z,101995.63
2023-05-08T21:37:41.351Z,102004.22
2023-05-08T21:40:09.766Z,101998.34
2023-05-08T21:42:39.651Z,101991.09
2023-05-08T21:45:07.481Z,101999.78
2023-05-08T21:47:35.528Z,101995.91
2023-05-08T21:50:04.205Z,101998.44
2023-05-08T21:52:32.187Z,101996.44
2023-05-08T21:54:59.516Z,101994.06
2023-05-08T21:57:26.850Z,101994.91
2023-05-08T21:59:54.416Z,102001.47
2023-05-08T22:02:21.891Z,101990.00
2023-05-08T22:04:49.265Z,101983.25
2023-05-08T22:07:16.622Z,101975.16
2023-05-08T22:09:43.995Z,101984.53
2023-05-08T22:12:11.350Z,101972.31
2023-05-08T22:14:39.584Z,101976.50
2023-05-08T22:17:07.014Z,101983.22
2023-05-08T22:19:35.468Z,101979.03
2023-05-08T22:22:02.817Z,101977.13
2023-05-08T22:24:30.539Z,101976.91
2023-05-08T22:26:57.853Z,101979.47
2023-05-08T22:29:25.364Z,101971.63
2023-05-08T22:31:52.787Z,101977.44
2023-05-08T22:34:20.382Z,101977.03
2023-05-08T22:36:47.944Z,101980.41
2023-05-08T22:39:15.503Z,101973.50
2023-05-08T22:41:43.147Z,101975.69
2023-05-08T22:44:11.220Z,101979.72
2023-05-08T22:46:38.966Z,101976.34
2023-05-08T22:49:06.609Z,101974.34
2023-05-08T22:51:34.138Z,101979.41
2023-05-08T22:54:01.652Z,101977.03
2023-05-08T22:56:28.987Z,101971.56
2023-05-08T22:58:56.524Z,101975.09
2023-05-08T23:01:23.893Z,101972.56
2023-05-08T23:03:53.735Z,101968.75
2023-05-08T23:06:21.270Z,101954.75
2023-05-08T23:08:48.709Z,101965.28
2023-05-08T23:11:16.591Z,101967.84
2023-05-08T23:13:43.976Z,101957.38
2023-05-08T23:16:11.486Z,101958.69
2023-05-08T23:18:39.096Z,101953.34
2023-05-08T23:21:07.645Z,101944.25
2023-05-08T23:23:36.128Z,101940.56
2023-05-08T23:26:05.235Z,101948.81
2023-05-08T23:28:34.321Z,101942.91
2023-05-08T23:31:02.553Z,101947.59
2023-05-08T23:33:30.729Z,101946.59
2023-05-08T23:35:59.312Z,101949.44
2023-05-08T23:38:26.933Z,101951.59
2023-05-08T23:40:54.272Z,101945.03
2023-05-08T23:43:21.855Z,101941.81
2023-05-08T23:45:49.541Z,101948.22
2023-05-08T23:48:16.958Z,101946.88
2023-05-08T23:50:44.580Z,101950.66
2023-05-08T23:53:12.050Z,101946.19
2023-05-08T23:55:39.506Z,101944.34
2023-05-08T23:58:06.829Z,101954.44
